Terminal Aerodrome Forecast
Issued by NWS

Home | Current Version | Previous Version | Text Only | Print | Product List | Glossary On
Versions: 1 2 3 4 5 6 7 8 9 10 11 12 13 14 15 16 17
784
FTUS46 KLOX 271126
TAFBUR
TAF
KBUR 271126Z 2712/2812 14008KT P6SM BKN035 OVC050
     FM271900 15007KT P6SM BKN040
     FM280300 VRB03KT P6SM BKN040=

USA.gov is the U.S. government's official web portal to all federal, state and local government web resources and services.